Terminal Aerodrome Forecast
Issued by NWS Goodland, KS

Current Version | Previous Version | Text Only | Print | Product List | Glossary On
Versions: 1 2 3 4 5 6 7 8 9 10 11 12
000
FTUS43 KGLD 301737
TAFGLD
TAF
KGLD 301737Z 3018/3118 19018G26KT P6SM FEW050 OVC100
     FM302000 19015G23KT P6SM OVC050
     FM310100 19014KT P6SM VCSH SCT025 OVC040
     FM310400 17012KT 6SM BR VCSH OVC025
     FM311100 VRB05KT 2SM BR OVC015=

USA.gov is the U.S. government's official web portal to all federal, state and local government web resources and services.